This is the latest recevied weather packets stored in our database for station/object HA9OZD-18. If no packets are shown the sender has not sent any weather packets the latest 10 day(s).
| Time | Temp. | Humidity | Pressure | Rain* | Wind** | Luminosity | Snow |
|---|---|---|---|---|---|---|---|
| 1778035981 | 11.67° C | 70% | 1012.3 hPa | - | - | - | - |
| 1778032381 | 12.22° C | 60% | 1012.6 hPa | - | - | - | - |
| 1778028781 | 12.22° C | 56% | 1012.9 hPa | - | - | - | - |
| 1778025180 | 13.33° C | 48% | 1012.8 hPa | - | - | - | - |
| 1778021580 | 12.78° C | 51% | 1013.3 hPa | - | - | - | - |
| 1778017980 | 13.89° C | 44% | 1013.6 hPa | - | - | - | - |
| 1778014379 | 14.44° C | 40% | 1013.5 hPa | - | - | - | - |
| 1778010779 | 15° C | 36% | 1013.3 hPa | - | - | - | - |
| 1778007179 | 15° C | 34% | 1013.4 hPa | - | - | - | - |
| 1778003579 | 16.11° C | 36% | 1013.4 hPa | - | - | - | - |
| 1777999978 | 17.78° C | 29% | 1013.5 hPa | - | - | - | - |
| 1777996378 | 18.89° C | 27% | 1013.8 hPa | - | - | - | - |
| 1777992778 | 19.44° C | 26% | 1014.2 hPa | - | - | - | - |
| 1777989191 | 21.11° C | 24% | 1014.8 hPa | - | - | - | - |
| 1777985591 | 25° C | 20% | 1015.2 hPa | - | - | - | - |
| 1777981991 | 22.78° C | 23% | 1015.7 hPa | - | - | - | - |
| 1777978391 | 21.67° C | 26% | 1016 hPa | - | - | - | - |
| 1777974790 | 20° C | 27% | 1016.4 hPa | - | - | - | - |
| 1777971190 | 17.78° C | 31% | 1016.6 hPa | - | - | - | - |
| 1777967590 | 15.56° C | 35% | 1016.7 hPa | - | - | - | - |
| 1777964034 | 14.44° C | 35% | 1016.9 hPa | - | - | - | - |
| 1777963990 | 14.44° C | 35% | 1016.9 hPa | - | - | - | - |
| 1777961540 | 13.33° C | 38% | 1016.7 hPa | - | - | - | - |
| 1777960432 | 13.33° C | 38% | 1016.7 hPa | - | - | - | - |
| 1777960389 | 13.33° C | 38% | 1016.7 hPa | - | - | - | - |
* Rain since midnight (hover to see other rain measurements)
** Current wind speed in m/s (hover to see current wind gust speed)